createdAt,value
2023-04-23T00:00:20.034Z,25.00
2023-04-23T00:01:20.026Z,25.00
2023-04-23T00:02:20.104Z,25.00
2023-04-23T00:03:20.118Z,0.00
2023-04-23T00:04:20.230Z,0.00
2023-04-23T00:05:20.081Z,0.00
2023-04-23T00:06:19.985Z,0.00
2023-04-23T00:07:19.987Z,0.00
2023-04-23T00:08:19.977Z,4.74
2023-04-23T00:09:19.975Z,21.44
2023-04-23T00:10:19.967Z,25.01
2023-04-23T00:11:19.987Z,25.00
2023-04-23T00:12:19.980Z,26.12
2023-04-23T00:13:19.985Z,25.00
2023-04-23T00:14:20.736Z,25.00
2023-04-23T00:15:19.964Z,25.97
2023-04-23T00:16:20.042Z,26.24
2023-04-23T00:17:20.120Z,25.00
2023-04-23T00:18:19.966Z,25.00
2023-04-23T00:19:22.713Z,25.01
2023-04-23T00:20:19.955Z,26.35
2023-04-23T00:21:19.950Z,25.91
2023-04-23T00:22:19.953Z,25.87
2023-04-23T00:23:19.943Z,25.61
2023-04-23T00:24:19.942Z,25.79
2023-04-23T00:25:19.939Z,28.10
2023-04-23T00:26:19.934Z,26.58
2023-04-23T00:27:19.930Z,25.59
2023-04-23T00:28:22.123Z,25.42
2023-04-23T00:29:19.963Z,25.64
2023-04-23T00:30:19.926Z,25.75
2023-04-23T00:31:19.960Z,22.63
2023-04-23T00:32:19.946Z,20.41
2023-04-23T00:33:19.920Z,18.88
2023-04-23T00:34:19.929Z,25.97
2023-04-23T00:35:19.911Z,25.94
2023-04-23T00:36:19.910Z,27.60
2023-04-23T00:37:19.907Z,25.00
2023-04-23T00:38:19.906Z,26.04
2023-04-23T00:39:19.894Z,25.23
2023-04-23T00:40:19.896Z,27.16
2023-04-23T00:41:19.898Z,28.55
2023-04-23T00:42:19.878Z,28.11
2023-04-23T00:43:19.880Z,26.70
2023-04-23T00:44:19.876Z,26.98
2023-04-23T00:45:19.882Z,27.05
2023-04-23T00:46:19.929Z,27.15
2023-04-23T00:47:19.858Z,25.75
2023-04-23T00:48:19.875Z,28.31
2023-04-23T00:49:19.851Z,26.72
2023-04-23T00:50:19.837Z,25.60
2023-04-23T00:51:19.830Z,25.29
2023-04-23T00:52:19.827Z,26.16
2023-04-23T00:53:19.835Z,25.27
2023-04-23T00:54:19.819Z,26.91
2023-04-23T00:55:19.808Z,25.00
2023-04-23T00:56:19.803Z,26.71
2023-04-23T00:57:19.794Z,26.61
2023-04-23T00:58:19.800Z,28.42
2023-04-23T00:59:19.804Z,27.69
2023-04-23T01:00:19.782Z,28.28
2023-04-23T01:01:19.837Z,25.95
2023-04-23T01:02:19.879Z,25.70
2023-04-23T01:03:19.826Z,27.80
2023-04-23T01:04:20.023Z,26.12
2023-04-23T01:05:19.747Z,26.72
2023-04-23T01:06:19.730Z,26.99
2023-04-23T01:07:19.730Z,25.24
2023-04-23T01:08:19.712Z,27.78
2023-04-23T01:09:19.708Z,27.92
2023-04-23T01:10:19.712Z,25.86
2023-04-23T01:11:19.682Z,26.85
2023-04-23T01:12:19.652Z,26.08
2023-04-23T01:13:19.636Z,26.95
2023-04-23T01:14:19.631Z,25.00
2023-04-23T01:15:19.615Z,29.25
2023-04-23T01:16:19.654Z,27.69
2023-04-23T01:17:19.625Z,27.75
2023-04-23T01:18:19.624Z,25.81
2023-04-23T01:19:19.651Z,26.83
2023-04-23T01:20:19.660Z,28.77
2023-04-23T01:21:19.672Z,27.08
2023-04-23T01:22:19.702Z,29.90
2023-04-23T01:23:19.732Z,25.77
2023-04-23T01:24:19.755Z,25.00
2023-04-23T01:25:19.787Z,28.49
2023-04-23T01:26:19.822Z,25.92
2023-04-23T01:27:19.840Z,29.12
2023-04-23T01:28:19.865Z,28.88
2023-04-23T01:29:19.937Z,28.15
2023-04-23T01:30:20.744Z,27.96
2023-04-23T01:31:20.011Z,28.07
2023-04-23T01:32:20.008Z,28.05
2023-04-23T01:33:20.023Z,26.99
2023-04-23T01:34:20.032Z,25.00
2023-04-23T01:35:20.066Z,29.24
2023-04-23T01:36:20.074Z,27.77
2023-04-23T01:37:20.091Z,28.84
2023-04-23T01:38:20.115Z,27.95
2023-04-23T01:39:20.149Z,25.99
2023-04-23T01:40:20.177Z,29.11
2023-04-23T01:41:20.760Z,26.97
2023-04-23T01:42:20.241Z,28.38
2023-04-23T01:43:20.252Z,27.97
2023-04-23T01:44:20.294Z,29.07
2023-04-23T01:45:20.359Z,27.70
2023-04-23T01:46:20.371Z,26.96
2023-04-23T01:47:20.402Z,29.30
2023-04-23T01:48:20.403Z,27.16
2023-04-23T01:50:38.375Z,25.00
2023-04-23T01:51:39.362Z,25.00
2023-04-23T01:52:39.402Z,25.00
2023-04-23T01:53:39.374Z,25.00
2023-04-23T01:54:39.565Z,25.00
2023-04-23T01:55:39.367Z,25.95
2023-04-23T01:56:39.370Z,26.73
2023-04-23T01:57:39.368Z,28.27
2023-04-23T01:58:39.966Z,26.81
2023-04-23T01:59:39.389Z,29.23
2023-04-23T02:00:39.388Z,27.93
2023-04-23T02:01:39.464Z,26.70
2023-04-23T02:02:40.168Z,27.87
2023-04-23T02:03:39.590Z,26.92
2023-04-23T02:04:39.731Z,25.80
2023-04-23T02:05:39.416Z,26.21
2023-04-23T02:06:39.436Z,27.75
2023-04-23T02:07:39.418Z,26.15
2023-04-23T02:08:39.422Z,27.25
2023-04-23T02:09:39.453Z,27.80
2023-04-23T02:10:39.428Z,28.15
2023-04-23T02:11:39.968Z,28.11
2023-04-23T02:12:39.981Z,26.40
2023-04-23T02:13:39.982Z,27.51
2023-04-23T02:14:39.708Z,26.70
2023-04-23T02:15:39.446Z,27.91
2023-04-23T02:16:39.446Z,26.58
2023-04-23T02:17:39.500Z,27.89
2023-04-23T02:18:39.434Z,26.83
2023-04-23T02:19:39.440Z,27.55
2023-04-23T02:20:39.443Z,28.72
2023-04-23T02:21:39.451Z,28.19
2023-04-23T02:22:39.508Z,26.48
2023-04-23T02:23:39.518Z,25.00
2023-04-23T02:24:39.941Z,27.82
2023-04-23T02:25:39.586Z,27.96
2023-04-23T02:26:40.500Z,26.92
2023-04-23T02:27:39.654Z,27.58
2023-04-23T02:28:39.683Z,26.13
2023-04-23T02:29:39.722Z,30.10
2023-04-23T02:30:39.755Z,26.14
2023-04-23T02:31:39.823Z,28.84
2023-04-23T02:32:39.824Z,25.24
2023-04-23T02:33:39.854Z,27.41
2023-04-23T02:34:40.109Z,28.25
2023-04-23T02:35:39.939Z,26.64
2023-04-23T02:36:39.977Z,28.18
2023-04-23T02:37:40.006Z,26.18
2023-04-23T02:38:40.061Z,27.47
2023-04-23T02:39:40.075Z,28.20
2023-04-23T02:40:40.469Z,27.27
2023-04-23T02:41:40.508Z,29.29
2023-04-23T02:42:42.536Z,27.06
2023-04-23T02:43:40.506Z,27.30
2023-04-23T02:44:40.694Z,27.22
2023-04-23T02:45:40.508Z,27.52
2023-04-23T02:46:40.600Z,27.40
2023-04-23T02:47:40.567Z,27.75
2023-04-23T02:48:40.566Z,27.20
2023-04-23T02:49:40.987Z,26.99
2023-04-23T02:50:40.987Z,26.02
2023-04-23T02:51:40.519Z,25.00
2023-04-23T02:52:40.517Z,27.44
2023-04-23T02:53:40.512Z,27.86
2023-04-23T02:54:40.907Z,27.96
2023-04-23T02:55:40.526Z,28.06
2023-04-23T02:56:40.511Z,28.09
2023-04-23T02:57:40.520Z,27.16
2023-04-23T02:58:40.515Z,26.30
2023-04-23T02:59:40.511Z,27.84
2023-04-23T03:00:40.523Z,27.71
2023-04-23T03:01:40.597Z,26.33
2023-04-23T03:02:40.669Z,27.45
2023-04-23T03:03:40.659Z,27.31
2023-04-23T03:04:40.808Z,26.76
2023-04-23T03:05:40.515Z,26.17
2023-04-23T03:06:40.512Z,25.95
2023-04-23T03:07:40.543Z,28.74
2023-04-23T03:08:40.516Z,27.68
2023-04-23T03:09:40.517Z,26.76
2023-04-23T03:10:40.555Z,29.38
2023-04-23T03:11:40.541Z,28.73
2023-04-23T03:12:40.604Z,28.74
2023-04-23T03:13:47.527Z,25.75
2023-04-23T03:14:41.181Z,26.35
2023-04-23T03:15:40.669Z,26.83
2023-04-23T03:16:40.734Z,27.52
2023-04-23T03:17:40.787Z,27.02
2023-04-23T03:18:40.661Z,29.67
2023-04-23T03:19:40.666Z,27.80
2023-04-23T03:20:40.678Z,28.19
2023-04-23T03:21:40.684Z,28.91
2023-04-23T03:22:41.000Z,29.28
2023-04-23T03:23:41.026Z,27.47
2023-04-23T03:24:41.641Z,27.76
2023-04-23T03:25:40.709Z,26.92
2023-04-23T03:26:40.744Z,26.45
2023-04-23T03:27:41.541Z,29.06
2023-04-23T03:28:40.732Z,28.86
2023-04-23T03:29:41.547Z,28.10
2023-04-23T03:30:41.556Z,29.55
2023-04-23T03:31:47.549Z,29.58
2023-04-23T03:32:40.767Z,30.01
2023-04-23T03:33:40.768Z,30.52
2023-04-23T03:34:41.000Z,30.32
2023-04-23T03:35:40.775Z,30.59
2023-04-23T03:36:43.511Z,29.73
2023-04-23T03:37:40.783Z,29.72
2023-04-23T03:38:41.017Z,29.67
2023-04-23T03:39:40.789Z,29.75
2023-04-23T03:40:41.537Z,29.59
2023-04-23T03:41:40.797Z,31.36
2023-04-23T03:42:40.835Z,28.87
2023-04-23T03:43:40.810Z,28.57
2023-04-23T03:44:41.083Z,28.27
2023-04-23T03:45:43.543Z,26.22
2023-04-23T03:46:41.009Z,26.48
2023-04-23T03:47:40.866Z,26.70
2023-04-23T03:48:41.019Z,27.63
2023-04-23T03:49:40.835Z,27.67
2023-04-23T03:50:40.843Z,29.44
2023-04-23T03:51:40.852Z,31.21
2023-04-23T03:52:41.544Z,28.00
2023-04-23T03:53:40.867Z,28.90
2023-04-23T03:54:43.682Z,28.89
2023-04-23T03:55:43.512Z,29.06
2023-04-23T03:56:41.024Z,29.22
2023-04-23T03:57:40.877Z,29.67
2023-04-23T03:58:40.896Z,28.90
2023-04-23T03:59:40.878Z,30.31
2023-04-23T04:00:40.885Z,28.91
2023-04-23T04:01:40.890Z,27.90
2023-04-23T04:02:41.135Z,29.08
2023-04-23T04:03:41.408Z,29.57
2023-04-23T04:04:41.911Z,29.80
2023-04-23T04:05:40.958Z,30.12
2023-04-23T04:06:40.888Z,28.26
2023-04-23T04:07:41.561Z,31.71
2023-04-23T04:08:41.025Z,29.94
2023-04-23T04:09:40.977Z,27.28
2023-04-23T04:10:47.570Z,27.24
2023-04-23T04:11:41.064Z,27.73
2023-04-23T04:12:40.945Z,28.01
2023-04-23T04:13:40.961Z,28.25
2023-04-23T04:14:41.289Z,28.52
2023-04-23T04:15:41.001Z,28.81
2023-04-23T04:16:40.969Z,26.22
2023-04-23T04:17:41.026Z,28.71
2023-04-23T04:18:41.023Z,26.23
2023-04-23T04:19:40.986Z,27.68
2023-04-23T04:20:41.565Z,25.96
2023-04-23T04:21:41.002Z,28.16
2023-04-23T04:22:41.563Z,28.19
2023-04-23T04:23:41.024Z,27.16
2023-04-23T04:24:41.258Z,27.89
2023-04-23T04:25:41.025Z,26.69
2023-04-23T04:26:41.032Z,28.70
2023-04-23T04:27:41.029Z,26.25
2023-04-23T04:28:41.573Z,27.22
2023-04-23T04:29:48.053Z,27.64
2023-04-23T04:30:41.038Z,28.20
2023-04-23T04:31:41.121Z,28.71
2023-04-23T04:32:41.053Z,29.56
2023-04-23T04:33:41.050Z,28.99
2023-04-23T04:34:41.270Z,29.08
2023-04-23T04:35:48.032Z,29.72
2023-04-23T04:36:41.061Z,30.23
2023-04-23T04:37:41.058Z,30.42
2023-04-23T04:38:41.070Z,29.57
2023-04-23T04:39:44.041Z,30.19
2023-04-23T04:40:41.070Z,29.92
2023-04-23T04:41:42.039Z,29.98
2023-04-23T04:42:42.035Z,30.96
2023-04-23T04:43:41.076Z,29.50
2023-04-23T04:44:41.287Z,29.24
2023-04-23T04:45:41.110Z,26.75
2023-04-23T04:46:41.096Z,27.58
2023-04-23T04:47:41.128Z,31.10
2023-04-23T04:48:41.077Z,27.45
2023-04-23T04:49:41.079Z,28.77
2023-04-23T04:50:41.081Z,28.99
2023-04-23T04:51:41.095Z,26.88
2023-04-23T04:52:41.082Z,28.34
2023-04-23T04:53:41.101Z,28.20
2023-04-23T04:54:41.333Z,27.33
2023-04-23T04:55:41.125Z,27.23
2023-04-23T04:56:41.176Z,27.64
2023-04-23T04:57:41.593Z,29.32
2023-04-23T04:58:41.582Z,25.00
2023-04-23T04:59:41.991Z,29.71
2023-04-23T05:00:41.590Z,27.37
2023-04-23T05:01:41.604Z,27.73
2023-04-23T05:02:41.721Z,28.00
2023-04-23T05:03:41.737Z,27.65
2023-04-23T05:04:42.373Z,27.48
2023-04-23T05:05:41.588Z,27.08
2023-04-23T05:06:41.599Z,29.41
2023-04-23T05:07:42.534Z,27.23
2023-04-23T05:08:41.684Z,28.23
2023-04-23T05:09:43.645Z,28.99
2023-04-23T05:10:41.742Z,29.14
2023-04-23T05:11:41.741Z,29.14
2023-04-23T05:12:41.748Z,27.61
2023-04-23T05:13:42.056Z,28.21
2023-04-23T05:14:48.540Z,27.49
2023-04-23T05:15:41.797Z,29.54
2023-04-23T05:16:41.769Z,30.05
2023-04-23T05:17:41.863Z,30.09
2023-04-23T05:18:41.773Z,29.82
2023-04-23T05:19:42.078Z,29.93
2023-04-23T05:20:44.538Z,28.67
2023-04-23T05:21:41.785Z,28.85
2023-04-23T05:22:41.802Z,28.97
2023-04-23T05:23:41.794Z,29.21
2023-04-23T05:24:42.085Z,29.66
2023-04-23T05:25:41.807Z,30.36
2023-04-23T05:26:41.802Z,29.21
2023-04-23T05:27:41.826Z,28.62
2023-04-23T05:28:42.058Z,27.91
2023-04-23T05:29:44.540Z,28.14
2023-04-23T05:30:41.822Z,28.29
2023-04-23T05:31:41.820Z,28.76
2023-04-23T05:32:41.851Z,28.85
2023-04-23T05:33:49.196Z,27.56
2023-04-23T05:34:42.311Z,28.52
2023-04-23T05:35:41.823Z,28.50
2023-04-23T05:36:41.823Z,28.76
2023-04-23T05:37:42.544Z,29.03
2023-04-23T05:38:41.831Z,29.01
2023-04-23T05:39:43.970Z,30.61
2023-04-23T05:40:44.543Z,28.36
2023-04-23T05:41:41.846Z,28.48
2023-04-23T05:42:41.839Z,28.83
2023-04-23T05:43:41.842Z,28.85
2023-04-23T05:44:42.125Z,29.14
2023-04-23T05:45:41.846Z,30.86
2023-04-23T05:46:41.858Z,29.50
2023-04-23T05:47:41.882Z,27.41
2023-04-23T05:48:41.868Z,25.30
2023-04-23T05:49:41.897Z,27.17
2023-04-23T05:50:41.873Z,28.00
2023-04-23T05:51:41.882Z,27.00
2023-04-23T05:52:44.548Z,27.75
2023-04-23T05:53:41.893Z,27.87
2023-04-23T05:54:42.161Z,28.25
2023-04-23T05:55:42.548Z,28.36
2023-04-23T05:56:41.896Z,28.01
2023-04-23T05:57:48.549Z,28.96
2023-04-23T05:58:41.906Z,28.24
2023-04-23T05:59:41.907Z,28.72
2023-04-23T06:00:44.542Z,28.62
2023-04-23T06:01:41.920Z,27.92
2023-04-23T06:02:42.102Z,28.05
2023-04-23T06:03:42.128Z,28.83
2023-04-23T06:04:42.466Z,28.00
2023-04-23T06:05:41.981Z,32.72
2023-04-23T06:06:41.948Z,28.96
2023-04-23T06:07:42.557Z,29.08
2023-04-23T06:08:41.950Z,28.45
2023-04-23T06:09:41.950Z,27.63
2023-04-23T06:10:41.975Z,26.74
2023-04-23T06:11:42.545Z,26.85
2023-04-23T06:12:42.552Z,27.17
2023-04-23T06:13:43.664Z,25.84
2023-04-23T06:14:42.262Z,31.89
2023-04-23T06:15:44.565Z,33.85
2023-04-23T06:16:48.547Z,33.85
2023-04-23T06:17:42.090Z,34.39
2023-04-23T06:18:41.987Z,34.85
2023-04-23T06:19:41.980Z,33.43
2023-04-23T06:20:44.573Z,32.62
2023-04-23T06:21:41.994Z,33.91
2023-04-23T06:22:42.050Z,34.09
2023-04-23T06:23:42.055Z,33.32
2023-04-23T06:24:42.238Z,32.35
2023-04-23T06:25:42.007Z,33.04
2023-04-23T06:26:42.011Z,32.36
2023-04-23T06:27:42.028Z,33.96
2023-04-23T06:28:42.061Z,32.30
2023-04-23T06:29:42.133Z,34.40
2023-04-23T06:30:42.061Z,33.63
2023-04-23T06:31:42.070Z,33.91
2023-04-23T06:32:42.096Z,35.45
2023-04-23T06:33:42.036Z,33.42
2023-04-23T06:34:57.092Z,33.45
2023-04-23T06:35:42.040Z,33.87
2023-04-23T06:36:42.068Z,34.94
2023-04-23T06:37:42.037Z,35.77
2023-04-23T06:38:42.056Z,35.67
2023-04-23T06:39:44.553Z,38.60
2023-04-23T06:40:42.035Z,33.83
2023-04-23T06:41:42.042Z,34.82
2023-04-23T06:42:42.047Z,36.07
2023-04-23T06:43:42.056Z,37.28
2023-04-23T06:44:42.249Z,40.89
2023-04-23T06:45:42.054Z,39.64
2023-04-23T06:46:42.099Z,38.50
2023-04-23T06:47:42.100Z,40.78
2023-04-23T06:48:42.075Z,38.64
2023-04-23T06:49:42.057Z,40.37
2023-04-23T06:50:42.065Z,40.38
2023-04-23T06:51:42.065Z,39.90
2023-04-23T06:52:42.612Z,40.84
2023-04-23T06:53:42.081Z,40.43
2023-04-23T06:54:49.068Z,39.78
2023-04-23T06:55:42.088Z,40.33
2023-04-23T06:56:42.171Z,40.87
2023-04-23T06:57:42.089Z,41.41
2023-04-23T06:58:42.096Z,42.15
2023-04-23T06:59:42.106Z,43.22
2023-04-23T07:00:42.594Z,43.71
2023-04-23T07:01:43.057Z,40.70
2023-04-23T07:02:42.218Z,43.95
2023-04-23T07:03:44.873Z,41.77
2023-04-23T07:04:42.386Z,41.97
2023-04-23T07:05:42.592Z,42.61
2023-04-23T07:06:43.071Z,42.01
2023-04-23T07:07:42.114Z,44.04
2023-04-23T07:08:42.605Z,42.73
2023-04-23T07:09:42.112Z,42.45
2023-04-23T07:10:42.130Z,44.84
2023-04-23T07:11:42.151Z,42.99
2023-04-23T07:12:42.122Z,45.02
2023-04-23T07:13:49.093Z,43.08
2023-04-23T07:14:45.081Z,43.55
2023-04-23T07:15:42.169Z,43.51
2023-04-23T07:16:43.118Z,43.75
2023-04-23T07:17:42.213Z,45.35
2023-04-23T07:18:42.130Z,45.40
2023-04-23T07:19:42.430Z,44.77
2023-04-23T07:20:42.124Z,44.32
2023-04-23T07:21:42.128Z,46.44
2023-04-23T07:22:42.131Z,45.36
2023-04-23T07:23:42.592Z,44.55
2023-04-23T07:24:42.495Z,44.95
2023-04-23T07:25:42.136Z,43.99
2023-04-23T07:26:42.132Z,45.67
2023-04-23T07:27:42.128Z,43.14
2023-04-23T07:28:42.123Z,42.82
2023-04-23T07:29:49.101Z,44.56
2023-04-23T07:30:42.114Z,45.06
2023-04-23T07:31:42.153Z,45.68
2023-04-23T07:32:42.154Z,45.42
2023-04-23T07:33:43.108Z,46.42
2023-04-23T07:34:42.670Z,47.54
2023-04-23T07:35:42.597Z,45.04
2023-04-23T07:36:42.098Z,44.21
2023-04-23T07:37:42.102Z,44.80
2023-04-23T07:38:42.084Z,43.92
2023-04-23T07:39:44.103Z,45.09
2023-04-23T07:40:48.628Z,46.16
2023-04-23T07:41:42.603Z,46.75
2023-04-23T07:42:42.104Z,47.17
2023-04-23T07:43:42.106Z,47.98
2023-04-23T07:44:42.082Z,48.13
2023-04-23T07:45:42.156Z,48.42
2023-04-23T07:46:42.137Z,47.63
2023-04-23T07:47:42.116Z,46.87
2023-04-23T07:48:42.111Z,47.49
2023-04-23T07:49:42.307Z,47.43
2023-04-23T07:50:48.622Z,48.24
2023-04-23T07:51:42.611Z,48.71
2023-04-23T07:52:42.046Z,48.98
2023-04-23T07:53:42.040Z,49.41
2023-04-23T07:54:42.030Z,47.95
2023-04-23T07:55:42.032Z,48.90
2023-04-23T07:56:43.477Z,46.82
2023-04-23T07:57:48.608Z,49.21
2023-04-23T07:58:42.101Z,49.51
2023-04-23T07:59:43.120Z,49.70
2023-04-23T08:00:42.091Z,50.05
2023-04-23T08:01:42.136Z,49.39
2023-04-23T08:02:42.697Z,49.63
2023-04-23T08:03:42.263Z,46.16
2023-04-23T08:04:42.268Z,47.89
2023-04-23T08:05:42.142Z,47.43
2023-04-23T08:06:42.136Z,46.83
2023-04-23T08:07:42.148Z,46.84
2023-04-23T08:08:42.180Z,47.45
2023-04-23T08:09:42.444Z,47.74
2023-04-23T08:10:42.226Z,47.41
2023-04-23T08:11:42.249Z,47.37
2023-04-23T08:12:42.285Z,47.41
2023-04-23T08:13:42.290Z,48.59
2023-04-23T08:14:42.317Z,47.57
2023-04-23T08:15:42.365Z,48.89
2023-04-23T08:16:42.368Z,46.95
2023-04-23T08:17:42.403Z,47.05
2023-04-23T08:18:44.241Z,46.33
2023-04-23T08:19:42.735Z,46.68
2023-04-23T08:20:43.129Z,46.68
2023-04-23T08:21:42.393Z,47.26
2023-04-23T08:22:42.380Z,48.23
2023-04-23T08:23:42.378Z,49.61
2023-04-23T08:24:42.375Z,50.37
2023-04-23T08:25:42.376Z,49.80
2023-04-23T08:26:42.373Z,52.61
2023-04-23T08:27:42.361Z,49.47
2023-04-23T08:28:42.441Z,50.22
2023-04-23T08:29:42.597Z,50.01
2023-04-23T08:30:42.356Z,49.90
2023-04-23T08:31:42.396Z,50.60
2023-04-23T08:32:43.127Z,49.85
2023-04-23T08:33:42.617Z,48.42
2023-04-23T08:34:42.364Z,50.36
2023-04-23T08:35:49.129Z,49.86
2023-04-23T08:36:42.339Z,50.31
2023-04-23T08:37:42.342Z,50.85
2023-04-23T08:38:42.332Z,51.35
2023-04-23T08:39:42.555Z,52.18
2023-04-23T08:40:42.325Z,52.39
2023-04-23T08:41:42.319Z,51.15
2023-04-23T08:42:43.113Z,51.39
2023-04-23T08:43:42.318Z,51.35
2023-04-23T08:44:42.347Z,50.97
2023-04-23T08:45:42.318Z,50.05
2023-04-23T08:46:42.319Z,50.27
2023-04-23T08:47:42.337Z,51.01
2023-04-23T08:48:42.301Z,51.79
2023-04-23T08:49:42.534Z,52.91
2023-04-23T08:50:42.286Z,51.01
2023-04-23T08:51:42.282Z,51.49
2023-04-23T08:52:42.277Z,50.25
2023-04-23T08:53:42.275Z,51.49
2023-04-23T08:54:42.272Z,51.07
2023-04-23T08:55:42.275Z,51.09
2023-04-23T08:56:42.267Z,51.28
2023-04-23T08:57:42.265Z,51.55
2023-04-23T08:58:42.262Z,50.58
2023-04-23T08:59:42.407Z,50.04
2023-04-23T09:00:42.353Z,51.21
2023-04-23T09:01:42.311Z,52.81
2023-04-23T09:02:42.436Z,51.30
2023-04-23T09:03:42.355Z,52.09
2023-04-23T09:04:42.263Z,51.08
2023-04-23T09:05:42.262Z,51.23
2023-04-23T09:06:42.251Z,51.07
2023-04-23T09:07:42.256Z,51.91
2023-04-23T09:08:42.240Z,53.04
2023-04-23T09:09:42.499Z,52.87
2023-04-23T09:10:42.237Z,51.48
2023-04-23T09:11:42.234Z,51.35
2023-04-23T09:12:42.233Z,53.27
2023-04-23T09:13:42.248Z,51.07
2023-04-23T09:14:42.570Z,51.20
2023-04-23T09:15:42.230Z,52.38
2023-04-23T09:16:42.275Z,51.89
2023-04-23T09:17:42.244Z,52.13
2023-04-23T09:18:42.230Z,51.47
2023-04-23T09:19:42.500Z,51.22
2023-04-23T09:20:42.203Z,52.90
2023-04-23T09:21:42.203Z,53.40
2023-04-23T09:22:44.330Z,52.03
2023-04-23T09:23:42.203Z,52.22
2023-04-23T09:24:42.522Z,52.44
2023-04-23T09:25:42.199Z,52.53
2023-04-23T09:26:42.194Z,52.41
2023-04-23T09:27:42.193Z,52.33
2023-04-23T09:28:42.191Z,51.00
2023-04-23T09:29:42.416Z,50.44
2023-04-23T09:30:42.180Z,52.53
2023-04-23T09:31:42.207Z,52.45
2023-04-23T09:32:42.236Z,51.82
2023-04-23T09:33:42.174Z,53.64
2023-04-23T09:34:42.164Z,52.05
2023-04-23T09:35:42.156Z,52.92
2023-04-23T09:36:42.176Z,51.44
2023-04-23T09:37:42.148Z,53.41
2023-04-23T09:38:42.139Z,53.02
2023-04-23T09:39:42.385Z,51.97
2023-04-23T09:40:42.137Z,53.22
2023-04-23T09:41:42.179Z,52.35
2023-04-23T09:42:42.123Z,53.79
2023-04-23T09:43:42.128Z,52.44
2023-04-23T09:44:42.110Z,53.19
2023-04-23T09:45:42.110Z,53.38
2023-04-23T09:46:42.103Z,52.51
2023-04-23T09:47:42.107Z,54.95
2023-04-23T09:48:42.105Z,52.51
2023-04-23T09:49:42.523Z,52.68
2023-04-23T09:50:42.066Z,54.08
2023-04-23T09:51:42.076Z,53.70
2023-04-23T09:52:42.052Z,52.21
2023-04-23T09:53:42.105Z,49.59
2023-04-23T09:54:42.038Z,48.24
2023-04-23T09:55:42.035Z,46.20
2023-04-23T09:56:42.016Z,48.32
2023-04-23T09:57:42.035Z,50.57
2023-04-23T09:58:42.023Z,52.38
2023-04-23T09:59:48.976Z,51.10
2023-04-23T10:00:41.990Z,51.33
2023-04-23T10:01:42.041Z,51.78
2023-04-23T10:02:42.074Z,52.21
2023-04-23T10:03:42.253Z,52.87
2023-04-23T10:04:42.342Z,53.31
2023-04-23T10:06:47.022Z,54.90
2023-04-23T10:07:41.949Z,55.05
2023-04-23T10:08:41.944Z,55.22
2023-04-23T10:09:42.322Z,55.81
2023-04-23T10:10:57.384Z,55.29
2023-04-23T10:11:41.927Z,55.44
2023-04-23T10:13:40.928Z,55.14
2023-04-23T10:14:41.923Z,56.07
2023-04-23T10:15:41.930Z,56.44
2023-04-23T10:16:48.654Z,57.28
2023-04-23T10:17:41.920Z,55.19
2023-04-23T10:18:42.161Z,56.34
2023-04-23T10:19:41.928Z,56.91
2023-04-23T10:20:41.909Z,57.14
2023-04-23T10:21:53.387Z,58.30
2023-04-23T10:22:41.877Z,55.09
2023-04-23T10:23:41.857Z,56.00
2023-04-23T10:24:41.856Z,56.42
2023-04-23T10:25:41.854Z,57.84
2023-04-23T10:26:41.852Z,58.56
2023-04-23T10:27:52.017Z,57.08
2023-04-23T10:28:41.839Z,57.53
2023-04-23T10:29:42.049Z,57.87
2023-04-23T10:30:41.816Z,57.83
2023-04-23T10:31:41.884Z,56.91
2023-04-23T10:32:41.837Z,56.90
2023-04-23T10:33:49.762Z,57.26
2023-04-23T10:34:41.784Z,57.67
2023-04-23T10:35:41.774Z,58.36
2023-04-23T10:36:41.810Z,58.57
2023-04-23T10:37:41.771Z,58.05
2023-04-23T10:38:54.628Z,58.26
2023-04-23T10:39:41.783Z,57.75
2023-04-23T10:40:41.777Z,58.54
2023-04-23T10:41:44.676Z,59.02
2023-04-23T10:42:41.777Z,57.67
2023-04-23T10:43:41.789Z,58.11
2023-04-23T10:45:40.781Z,57.64
2023-04-23T10:46:41.809Z,58.07
2023-04-23T10:47:41.794Z,58.29
2023-04-23T10:48:41.787Z,58.02
2023-04-23T10:49:42.119Z,58.13
2023-04-23T10:51:00.282Z,57.52
2023-04-23T10:52:40.810Z,58.05
2023-04-23T10:53:41.784Z,58.50
2023-04-23T10:54:41.794Z,58.71
2023-04-23T10:55:41.788Z,58.54
2023-04-23T10:56:42.165Z,59.60
2023-04-23T10:57:42.170Z,60.10
2023-04-23T10:58:41.789Z,60.49
2023-04-23T10:59:42.058Z,59.47
2023-04-23T11:00:41.833Z,57.89
2023-04-23T11:01:41.828Z,58.70
2023-04-23T11:02:41.888Z,58.37
2023-04-23T11:03:44.202Z,57.87
2023-04-23T11:04:41.945Z,58.10
2023-04-23T11:05:41.793Z,58.49
2023-04-23T11:06:41.497Z,58.88
2023-04-23T11:07:41.494Z,59.18
2023-04-23T11:08:41.501Z,58.35
2023-04-23T11:09:41.771Z,59.93
2023-04-23T11:10:41.473Z,58.54
2023-04-23T11:11:41.517Z,58.53
2023-04-23T11:12:41.463Z,60.18
2023-04-23T11:13:41.450Z,59.01
2023-04-23T11:14:41.460Z,59.24
2023-04-23T11:15:41.511Z,57.53
2023-04-23T11:16:41.482Z,58.27
2023-04-23T11:17:41.457Z,58.29
2023-04-23T11:18:41.417Z,58.04
2023-04-23T11:19:41.680Z,57.81
2023-04-23T11:20:41.387Z,56.95
2023-04-23T11:21:41.373Z,57.37
2023-04-23T11:22:41.364Z,57.19
2023-04-23T11:23:41.343Z,55.91
2023-04-23T11:24:41.377Z,57.23
2023-04-23T11:25:41.389Z,58.26
2023-04-23T11:26:41.441Z,58.65
2023-04-23T11:27:41.481Z,57.76
2023-04-23T11:28:41.530Z,58.23
2023-04-23T11:29:41.755Z,58.03
2023-04-23T11:30:41.591Z,57.49
2023-04-23T11:31:54.415Z,57.34
2023-04-23T11:32:41.701Z,57.72
2023-04-23T11:33:41.607Z,58.71
2023-04-23T11:34:41.617Z,58.92
2023-04-23T11:35:41.592Z,60.35
2023-04-23T11:36:41.586Z,60.19
2023-04-23T11:37:41.577Z,61.69
2023-04-23T11:38:41.543Z,60.44
2023-04-23T11:39:42.088Z,61.60
2023-04-23T11:40:41.557Z,60.82
2023-04-23T11:41:41.523Z,60.85
2023-04-23T11:42:42.197Z,60.92
2023-04-23T11:43:41.520Z,59.72
2023-04-23T11:44:41.527Z,60.42
2023-04-23T11:45:41.529Z,60.79
2023-04-23T11:46:41.486Z,61.38
2023-04-23T11:47:41.498Z,61.15
2023-04-23T11:48:41.476Z,60.94
2023-04-23T11:49:41.651Z,60.72
2023-04-23T11:50:41.440Z,62.18
2023-04-23T11:51:41.477Z,62.09
2023-04-23T11:52:42.192Z,60.24
2023-04-23T11:53:41.552Z,60.93
2023-04-23T11:54:41.589Z,60.40
2023-04-23T11:55:41.648Z,61.69
2023-04-23T11:56:41.700Z,62.56
2023-04-23T11:57:41.727Z,59.15
2023-04-23T11:58:41.797Z,59.60
2023-04-23T11:59:42.106Z,60.74
2023-04-23T12:00:41.886Z,60.75
2023-04-23T12:01:41.936Z,60.32
2023-04-23T12:02:42.049Z,61.40
2023-04-23T12:03:42.115Z,59.01
2023-04-23T12:04:42.098Z,59.10
2023-04-23T12:05:42.163Z,62.49
2023-04-23T12:06:42.125Z,62.25
2023-04-23T12:07:42.180Z,62.83
2023-04-23T12:08:42.220Z,62.16
2023-04-23T12:09:42.505Z,62.37
2023-04-23T12:10:42.280Z,62.60
2023-04-23T12:11:42.325Z,62.76
2023-04-23T12:12:42.383Z,63.13
2023-04-23T12:13:42.411Z,62.78
2023-04-23T12:14:42.701Z,63.22
2023-04-23T12:15:42.541Z,63.48
2023-04-23T12:16:42.529Z,63.25
2023-04-23T12:17:42.579Z,63.16
2023-04-23T12:18:42.594Z,62.95
2023-04-23T12:19:42.954Z,63.77
2023-04-23T12:20:42.676Z,62.93
2023-04-23T12:21:42.725Z,63.80
2023-04-23T12:22:42.757Z,63.93
2023-04-23T12:23:42.805Z,63.97
2023-04-23T12:24:42.849Z,64.00
2023-04-23T12:25:42.902Z,63.68
2023-04-23T12:26:42.997Z,62.69
2023-04-23T12:27:42.995Z,64.52
2023-04-23T12:28:43.229Z,64.18
2023-04-23T12:29:43.450Z,62.73
2023-04-23T12:30:43.140Z,61.72
2023-04-23T12:31:43.219Z,63.78
2023-04-23T12:32:43.293Z,61.85
2023-04-23T12:33:43.259Z,63.06
2023-04-23T12:34:43.547Z,65.21
2023-04-23T12:35:50.207Z,63.52
2023-04-23T12:36:44.212Z,63.98
2023-04-23T12:37:43.386Z,64.41
2023-04-23T12:38:43.320Z,64.85
2023-04-23T12:39:43.548Z,65.01
2023-04-23T12:40:43.288Z,65.41
2023-04-23T12:41:43.284Z,65.08
2023-04-23T12:42:43.275Z,65.79
2023-04-23T12:43:43.261Z,64.68
2023-04-23T12:44:43.306Z,65.38
2023-04-23T12:45:43.266Z,65.51
2023-04-23T12:46:43.229Z,64.86
2023-04-23T12:47:43.324Z,65.16
2023-04-23T12:48:43.329Z,65.43
2023-04-23T12:49:43.814Z,65.00
2023-04-23T12:50:43.424Z,64.82
2023-04-23T12:51:43.455Z,64.13
2023-04-23T12:52:43.508Z,65.99
2023-04-23T12:53:43.570Z,65.50
2023-04-23T12:54:43.633Z,66.00
2023-04-23T12:55:43.678Z,67.32
2023-04-23T12:56:43.728Z,66.04
2023-04-23T12:57:43.796Z,65.83